Time;durP1;ratioP1;P1;durP2;ratioP2;P2;SDS_P1;SDS_P2;PMS_P1;PMS_P2;Temp;Humidity;BMP_temperature;BMP_pressure;BME280_temperature;BME280_humidity;BME280_pressure;Samples;Min_cycle;Max_cycle;Signal;HPM_P1;HPM_P2
2022/12/24 00:01:15;;;;;;;14.27;9.40;;;;;;;6.21;100.00;99680.47;7399419;19;20074;-72
2022/12/24 00:03:44;;;;;;;13.52;9.20;;;;;;;6.21;100.00;99674.41;7398435;19;20090;-72
2022/12/24 00:06:19;;;;;;;15.77;8.98;;;;;;;6.19;100.00;99671.81;7398577;19;20074;-72
2022/12/24 00:08:54;;;;;;;11.88;8.65;;;;;;;6.20;100.00;99670.94;7399958;19;20023;-73
2022/12/24 00:11:23;;;;;;;12.93;8.77;;;;;;;6.20;100.00;99670.94;7399113;19;20414;-73
2022/12/24 00:13:54;;;;;;;12.15;8.80;;;;;;;6.21;100.00;99669.22;7397490;19;20022;-72
2022/12/24 00:16:22;;;;;;;11.93;8.10;;;;;;;6.21;100.00;99671.81;7396678;19;20517;-72
2022/12/24 00:18:51;;;;;;;11.00;7.25;;;;;;;6.21;100.00;99675.25;7399123;19;20019;-72
2022/12/24 00:21:20;;;;;;;10.63;7.00;;;;;;;6.21;100.00;99672.66;7399203;19;20026;-70
2022/12/24 00:23:48;;;;;;;10.20;6.72;;;;;;;6.19;100.00;99664.88;7399110;19;20033;-71
2022/12/24 00:26:17;;;;;;;8.75;5.55;;;;;;;6.22;100.00;99668.28;7396447;19;20429;-70
2022/12/24 00:28:45;;;;;;;8.55;5.97;;;;;;;6.22;100.00;99666.56;7396473;19;20481;-70
2022/12/24 00:31:19;;;;;;;7.88;5.65;;;;;;;6.23;100.00;99678.72;7398428;19;20014;-70
2022/12/24 00:33:48;;;;;;;7.85;5.60;;;;;;;6.23;100.00;99676.09;7397165;19;20074;-71
2022/12/24 00:36:17;;;;;;;7.80;5.35;;;;;;;6.24;100.00;99688.22;7397284;19;20094;-70
2022/12/24 00:38:46;;;;;;;6.15;4.63;;;;;;;6.23;100.00;99691.72;7398137;19;20513;-70
2022/12/24 00:41:27;;;;;;;6.25;4.57;;;;;;;6.22;100.00;99691.75;7398064;19;20077;-70
2022/12/24 00:43:58;;;;;;;6.35;3.92;;;;;;;6.20;100.00;99691.78;7398821;19;20022;-71
2022/12/24 00:46:30;;;;;;;6.80;4.43;;;;;;;6.19;100.00;99687.44;7397378;19;20085;-71
2022/12/24 00:48:59;;;;;;;5.10;4.03;;;;;;;6.18;100.00;99685.75;7397552;19;20028;-70
2022/12/24 00:51:34;;;;;;;5.78;4.45;;;;;;;6.19;100.00;99692.66;7398178;19;20022;-70
2022/12/24 00:54:02;;;;;;;5.43;4.75;;;;;;;6.18;100.00;99709.19;7397339;19;20094;-70
2022/12/24 00:56:31;;;;;;;8.50;5.43;;;;;;;6.15;100.00;99706.66;7395872;19;20022;-71
2022/12/24 00:58:59;;;;;;;6.93;4.85;;;;;;;6.11;100.00;99703.25;7397841;19;20019;-70
2022/12/24 01:01:31;;;;;;;6.00;4.60;;;;;;;6.08;100.00;99705.03;7397813;19;20078;-70
2022/12/24 01:06:40;;;;;;;6.03;4.40;;;;;;;6.02;100.00;99719.06;7394792;19;20018;-70
2022/12/24 01:09:08;;;;;;;5.25;4.10;;;;;;;5.99;100.00;99729.50;7397264;19;20018;-70
2022/12/24 01:11:37;;;;;;;4.90;3.90;;;;;;;5.99;100.00;99740.81;7395668;19;20082;-71
2022/12/24 01:14:05;;;;;;;6.18;4.22;;;;;;;5.98;100.00;99746.91;7395150;19;20162;-71
2022/12/24 01:16:36;;;;;;;5.85;4.20;;;;;;;5.98;100.00;99735.59;7396046;19;20074;-71
2022/12/24 01:19:05;;;;;;;5.72;4.68;;;;;;;5.97;100.00;99739.09;7396859;19;20088;-71
2022/12/24 01:21:33;;;;;;;5.43;4.03;;;;;;;5.97;100.00;99739.09;7397095;19;20018;-69
2022/12/24 01:24:02;;;;;;;6.35;4.97;;;;;;;5.92;100.00;99752.19;7396699;19;20078;-70
2022/12/24 01:26:30;;;;;;;9.20;6.55;;;;;;;5.94;100.00;99759.94;7395740;19;20074;-70
2022/12/24 01:28:59;;;;;;;10.00;7.25;;;;;;;5.91;100.00;99749.63;7396510;19;20018;-71
2022/12/24 01:31:27;;;;;;;11.85;7.90;;;;;;;5.87;100.00;99757.47;7396858;19;20094;-70
2022/12/24 01:33:58;;;;;;;12.35;8.20;;;;;;;5.85;100.00;99763.59;7395564;19;20074;-70
2022/12/24 01:36:27;;;;;;;13.55;8.73;;;;;;;5.82;100.00;99761.06;7395266;19;20516;-70
2022/12/24 01:38:55;;;;;;;13.38;9.10;;;;;;;5.80;100.00;99770.63;7394941;19;20018;-70
2022/12/24 01:44:19;;;;;;;15.18;9.45;;;;;;;5.74;100.00;99784.63;7396673;19;20017;-71
2022/12/24 01:46:49;;;;;;;14.95;9.48;;;;;;;5.70;100.00;99786.41;7395081;19;20077;-71
2022/12/24 01:49:20;;;;;;;16.83;10.07;;;;;;;5.69;100.00;99781.22;7396313;19;20085;-71
2022/12/24 01:51:51;;;;;;;15.85;9.57;;;;;;;5.68;100.00;99788.16;7395854;19;20540;-70
2022/12/24 01:54:24;;;;;;;16.23;9.80;;;;;;;5.67;100.00;99794.28;7395361;19;20108;-71
2022/12/24 01:57:00;;;;;;;14.65;9.82;;;;;;;5.65;100.00;99798.63;7394797;19;20070;-71
2022/12/24 01:59:28;;;;;;;13.73;9.82;;;;;;;5.64;100.00;99799.53;7394814;19;20070;-70
2022/12/24 02:01:57;;;;;;;16.92;10.60;;;;;;;5.62;100.00;99801.28;7394373;19;20087;-71
2022/12/24 02:04:38;;;;;;;15.40;10.30;;;;;;;5.62;100.00;99803.88;7394904;19;20019;-71
2022/12/24 02:07:07;;;;;;;15.57;10.25;;;;;;;5.61;100.00;99815.19;7394327;19;20019;-71
2022/12/24 02:09:37;;;;;;;17.52;11.73;;;;;;;5.62;100.00;99822.09;7394015;19;20022;-71
2022/12/24 02:12:07;;;;;;;15.23;10.18;;;;;;;5.61;100.00;99825.59;7395178;19;20090;-71
2022/12/24 02:14:36;;;;;;;16.90;9.73;;;;;;;5.61;100.00;99829.94;7394101;19;20414;-70
2022/12/24 02:17:18;;;;;;;13.52;8.18;;;;;;;5.60;100.00;99833.41;7394000;19;20023;-70
2022/12/24 02:20:19;;;;;;;14.85;8.55;;;;;;;5.58;100.00;99836.03;7395750;19;20070;-70
2022/12/24 02:23:10;;;;;;;10.60;7.15;;;;;;;5.54;100.00;99845.63;7395412;19;20461;-70
2022/12/24 02:26:04;;;;;;;10.30;7.28;;;;;;;5.50;100.00;99840.53;7393131;19;20086;-70
2022/12/24 02:28:59;;;;;;;12.33;8.10;;;;;;;5.46;100.00;99850.13;7394835;19;20510;-70
2022/12/24 02:31:39;;;;;;;10.38;7.63;;;;;;;5.46;100.00;99855.31;7394851;19;21116;-70
2022/12/24 02:34:12;;;;;;;9.75;7.28;;;;;;;5.46;100.00;99875.25;7393955;19;20010;-70
2022/12/24 02:36:46;;;;;;;8.02;6.43;;;;;;;5.42;100.00;99869.25;7393840;19;20087;-70
2022/12/24 02:39:20;;;;;;;8.23;6.10;;;;;;;5.44;100.00;99879.63;7393096;19;20018;-70
2022/12/24 02:42:09;;;;;;;7.78;5.93;;;;;;;5.44;100.00;99877.03;7394570;19;20014;-70
2022/12/24 02:44:44;;;;;;;8.88;5.85;;;;;;;5.43;100.00;99877.91;7395135;19;20085;-70
2022/12/24 02:47:18;;;;;;;9.43;5.43;;;;;;;5.42;100.00;99884.00;7392940;19;20019;-70
2022/12/24 02:49:49;;;;;;;8.77;6.05;;;;;;;5.41;100.00;99879.66;7394286;19;20018;-70
2022/12/24 02:52:31;;;;;;;10.95;6.47;;;;;;;5.39;100.00;99874.50;7394892;19;20014;-70
2022/12/24 02:55:04;;;;;;;9.23;6.25;;;;;;;5.38;100.00;99878.84;7392440;19;20031;-70
2022/12/24 02:57:45;;;;;;;9.50;6.55;;;;;;;5.40;100.00;99873.63;7392895;19;20078;-70
2022/12/24 03:00:18;;;;;;;12.10;7.57;;;;;;;5.41;100.00;99882.25;7394744;19;20090;-70
2022/12/24 03:03:09;;;;;;;10.93;6.90;;;;;;;5.42;100.00;99894.41;7392687;19;20086;-70
2022/12/24 03:05:44;;;;;;;11.50;7.15;;;;;;;5.39;100.00;99908.31;7392141;19;20014;-70
2022/12/24 03:08:18;;;;;;;9.80;6.65;;;;;;;5.38;100.00;99901.38;7391834;19;20528;-70
2022/12/24 03:10:53;;;;;;;9.07;6.30;;;;;;;5.37;100.00;99902.25;7394491;19;20026;-70
2022/12/24 03:13:24;;;;;;;8.68;6.57;;;;;;;5.39;100.00;99916.97;7399684;19;20015;-70
2022/12/24 03:15:53;;;;;;;13.68;7.45;;;;;;;5.39;100.00;99911.75;7398984;19;20078;-70
2022/12/24 03:18:26;;;;;;;9.18;6.03;;;;;;;5.39;100.00;99916.13;7401299;19;20035;-70
2022/12/24 03:21:02;;;;;;;7.35;5.50;;;;;;;5.38;100.00;99912.66;7401365;19;20022;-70
2022/12/24 03:23:30;;;;;;;9.60;6.13;;;;;;;5.39;100.00;99916.97;7400849;19;20070;-70
2022/12/24 03:26:02;;;;;;;8.57;6.05;;;;;;;5.41;100.00;99927.38;7399951;19;20081;-70
2022/12/24 03:28:32;;;;;;;9.82;6.32;;;;;;;5.42;100.00;99929.09;7401409;19;20078;-70
2022/12/24 03:31:04;;;;;;;9.20;6.15;;;;;;;5.43;100.00;99935.16;7400467;19;20425;-70
2022/12/24 03:33:36;;;;;;;8.43;5.88;;;;;;;5.44;100.00;99947.28;7398632;19;20090;-70
2022/12/24 03:36:05;;;;;;;8.73;5.80;;;;;;;5.45;100.00;99954.22;7399273;19;20530;-70
2022/12/24 03:38:34;;;;;;;7.10;5.25;;;;;;;5.44;100.00;99955.94;7400539;19;20031;-70
2022/12/24 03:41:02;;;;;;;8.55;6.10;;;;;;;5.44;100.00;99947.28;7399959;19;20510;-70
2022/12/24 03:43:31;;;;;;;8.93;5.93;;;;;;;5.43;100.00;99953.34;7400376;19;20078;-70
2022/12/24 03:46:00;;;;;;;11.02;6.60;;;;;;;5.42;100.00;99952.50;7398904;19;20082;-69
2022/12/24 03:48:28;;;;;;;10.73;6.93;;;;;;;5.42;100.00;99968.13;7400297;19;20015;-70
2022/12/24 03:50:59;;;;;;;9.55;6.43;;;;;;;5.42;100.00;99975.03;7400317;19;20089;-70
2022/12/24 03:53:27;;;;;;;10.25;6.72;;;;;;;5.43;100.00;99974.16;7398144;19;20077;-70
2022/12/24 03:55:56;;;;;;;10.10;6.80;;;;;;;5.42;100.00;99973.31;7397170;19;20086;-70
2022/12/24 03:58:24;;;;;;;11.52;6.65;;;;;;;5.43;100.00;99980.22;7400017;19;20026;-70
2022/12/24 04:00:54;;;;;;;9.88;6.63;;;;;;;5.41;100.00;99989.81;7397140;19;20070;-70
2022/12/24 04:03:23;;;;;;;10.35;6.60;;;;;;;5.43;100.00;99984.56;7399606;19;20090;-70
2022/12/24 04:06:13;;;;;;;12.07;7.88;;;;;;;5.45;100.00;99998.44;7396652;19;20094;-69
2022/12/24 04:08:42;;;;;;;10.30;6.88;;;;;;;5.46;100.00;100002.72;7399361;19;20485;-70
2022/12/24 04:11:13;;;;;;;9.73;6.70;;;;;;;5.44;100.00;100005.38;7399571;19;20018;-70
2022/12/24 04:13:41;;;;;;;10.18;6.80;;;;;;;5.44;100.00;100000.16;7396945;19;20486;-70
2022/12/24 04:16:12;;;;;;;12.00;7.90;;;;;;;5.39;100.00;100002.81;7396475;19;20077;-70
2022/12/24 04:18:42;;;;;;;10.43;7.03;;;;;;;5.38;100.00;100000.22;7399761;19;20074;-70
2022/12/24 04:21:13;;;;;;;10.20;6.85;;;;;;;5.36;100.00;99996.81;7399288;19;20039;-70
2022/12/24 04:23:43;;;;;;;11.50;7.93;;;;;;;5.33;100.00;100002.03;7397986;19;20075;-69
2022/12/24 04:26:13;;;;;;;11.95;7.50;;;;;;;5.31;100.00;100009.84;7398023;19;20035;-69
2022/12/24 04:28:42;;;;;;;13.07;8.10;;;;;;;5.30;100.00;100005.53;7399126;19;20019;-69
2022/12/24 04:31:13;;;;;;;10.48;7.63;;;;;;;5.30;100.00;100008.13;7398955;19;20028;-70
2022/12/24 04:33:42;;;;;;;12.68;8.43;;;;;;;5.28;100.00;100012.50;7398768;19;20083;-70
2022/12/24 04:36:15;;;;;;;14.75;9.55;;;;;;;5.27;100.00;100015.97;7396536;19;20089;-70
2022/12/24 04:38:44;;;;;;;15.95;9.18;;;;;;;5.28;100.00;100024.63;7398990;19;20090;-70
2022/12/24 04:41:15;;;;;;;13.43;8.88;;;;;;;5.29;100.00;100027.22;7398118;19;20420;-70
2022/12/24 04:43:43;;;;;;;13.07;8.73;;;;;;;5.30;100.00;100028.94;7398862;19;20021;-70
2022/12/24 04:46:16;;;;;;;14.20;9.38;;;;;;;5.29;100.00;100028.97;7396707;19;20545;-70
2022/12/24 04:48:45;;;;;;;14.65;9.45;;;;;;;5.31;100.00;100032.41;7398522;19;20022;-70
2022/12/24 04:51:17;;;;;;;14.95;9.93;;;;;;;5.32;100.00;100034.13;7396043;19;20078;-70
2022/12/24 04:53:46;;;;;;;14.18;9.25;;;;;;;5.32;100.00;100042.81;7398530;19;20082;-70
2022/12/24 04:56:16;;;;;;;15.85;10.55;;;;;;;5.32;100.00;100044.53;7395613;19;20082;-70
2022/12/24 04:58:44;;;;;;;16.73;10.52;;;;;;;5.32;100.00;100036.72;7395861;19;20066;-70
2022/12/24 05:01:15;;;;;;;15.50;9.95;;;;;;;5.33;100.00;100039.31;7397905;19;20258;-70
2022/12/24 05:03:44;;;;;;;19.27;12.02;;;;;;;5.33;100.00;100052.34;7395529;19;20078;-70
2022/12/24 05:06:17;;;;;;;15.73;10.00;;;;;;;5.34;100.00;100048.81;7395567;19;20074;-70
2022/12/24 05:08:46;;;;;;;16.63;10.68;;;;;;;5.34;100.00;100059.22;7395638;19;20078;-69
2022/12/24 05:11:15;;;;;;;17.92;10.52;;;;;;;5.35;100.00;100066.16;7397026;19;20082;-70
2022/12/24 05:13:44;;;;;;;16.05;9.50;;;;;;;5.34;100.00;100072.25;7395557;19;20018;-70
2022/12/24 05:16:14;;;;;;;17.83;10.45;;;;;;;5.35;100.00;100073.13;7395699;19;20091;-70
2022/12/24 05:18:43;;;;;;;19.20;10.98;;;;;;;5.34;100.00;100072.25;7396919;19;20074;-70
2022/12/24 05:21:12;;;;;;;17.77;10.52;;;;;;;5.35;100.00;100073.97;7397044;19;20023;-70
2022/12/24 05:26:30;;;;;;;15.23;10.13;;;;;;;5.39;100.00;100085.22;7396015;19;20014;-70
2022/12/24 05:29:01;;;;;;;18.33;10.30;;;;;;;5.40;100.00;100081.72;7396616;19;20418;-70
2022/12/24 05:31:32;;;;;;;17.95;11.55;;;;;;;5.41;100.00;100083.47;7396599;19;20074;-70
2022/12/24 05:34:02;;;;;;;20.08;11.95;;;;;;;5.41;100.00;100082.56;7396901;19;20024;-69
2022/12/24 05:36:30;;;;;;;18.83;11.63;;;;;;;5.43;100.00;100088.63;7392169;19;20093;-70
2022/12/24 05:39:02;;;;;;;18.42;11.65;;;;;;;5.43;100.00;100101.66;7396654;19;20074;-71
2022/12/24 05:41:30;;;;;;;19.73;12.13;;;;;;;5.43;100.00;100109.44;7396307;19;20508;-71
2022/12/24 05:43:59;;;;;;;20.50;11.40;;;;;;;5.44;100.00;100103.38;7396509;19;20018;-71
2022/12/24 05:46:27;;;;;;;20.35;11.43;;;;;;;5.43;100.00;100099.03;7395397;19;20106;-71
2022/12/24 05:48:56;;;;;;;19.90;10.25;;;;;;;5.42;100.00;100090.38;7395710;19;20557;-71
2022/12/24 05:51:25;;;;;;;22.33;11.40;;;;;;;5.42;100.00;100095.59;7396038;19;20078;-71
2022/12/24 05:53:53;;;;;;;19.60;10.95;;;;;;;5.44;100.00;100082.56;7395855;19;20027;-70
2022/12/24 05:56:26;;;;;;;20.63;11.18;;;;;;;5.42;100.00;100095.59;7394117;19;20073;-71
2022/12/24 05:58:55;;;;;;;21.60;11.20;;;;;;;5.41;100.00;100087.78;7394142;19;20086;-71
2022/12/24 06:01:24;;;;;;;23.50;11.65;;;;;;;5.40;100.00;100102.53;7395574;19;20513;-71
2022/12/24 06:03:53;;;;;;;23.17;12.77;;;;;;;5.36;100.00;100106.06;7395931;19;20014;-71
2022/12/24 06:06:25;;;;;;;72.55;37.00;;;;;;;5.37;100.00;100113.84;7394161;19;20078;-71
2022/12/24 06:08:55;;;;;;;30.73;16.77;;;;;;;5.36;100.00;100122.53;7393881;19;20481;-71
2022/12/24 06:11:27;;;;;;;27.90;13.43;;;;;;;5.36;100.00;100127.72;7395318;19;20014;-71
2022/12/24 06:13:56;;;;;;;22.90;11.95;;;;;;;5.34;100.00;100123.41;7395910;19;20021;-72
2022/12/24 06:16:26;;;;;;;22.05;11.90;;;;;;;5.33;100.00;100122.56;7393797;19;20074;-71
2022/12/24 06:18:54;;;;;;;23.60;11.20;;;;;;;5.33;100.00;100124.28;7395462;19;20018;-71
2022/12/24 06:21:23;;;;;;;24.20;11.00;;;;;;;5.33;100.00;100119.97;7393656;19;20074;-71
2022/12/24 06:23:51;;;;;;;22.40;11.35;;;;;;;5.32;100.00;100120.84;7394861;19;20078;-71
2022/12/24 06:26:22;;;;;;;22.15;11.15;;;;;;;5.33;100.00;100117.38;7393276;19;20066;-71
2022/12/24 06:28:53;;;;;;;23.45;11.32;;;;;;;5.32;100.00;100105.22;7395404;19;20022;-71
2022/12/24 06:31:23;;;;;;;19.80;9.60;;;;;;;5.31;100.00;100150.31;7395457;19;20026;-71
2022/12/24 06:33:52;;;;;;;17.15;8.88;;;;;;;5.28;100.00;100123.47;7395041;19;20070;-71
2022/12/24 06:36:23;;;;;;;17.92;9.02;;;;;;;5.26;100.00;100123.50;7393389;19;20078;-71
2022/12/24 06:38:52;;;;;;;17.75;8.52;;;;;;;5.24;100.00;100135.63;7394967;19;20432;-71
2022/12/24 06:41:21;;;;;;;15.73;7.68;;;;;;;5.24;100.00;100143.44;7393013;19;20023;-71
2022/12/24 06:43:53;;;;;;;15.18;7.63;;;;;;;5.22;100.00;100147.81;7394977;19;20031;-70
2022/12/24 06:46:22;;;;;;;16.38;9.00;;;;;;;5.19;100.00;100146.09;7393776;19;20022;-70
2022/12/24 06:48:51;;;;;;;15.63;7.13;;;;;;;5.22;100.00;100153.03;7401587;19;20493;-70
2022/12/24 06:51:20;;;;;;;16.00;7.43;;;;;;;5.22;100.00;100159.06;7402547;19;20078;-70
2022/12/24 06:53:49;;;;;;;23.58;12.13;;;;;;;5.23;100.00;100167.72;7403746;19;20019;-70
2022/12/24 06:56:18;;;;;;;21.00;9.98;;;;;;;5.23;100.00;100162.53;7399529;19;20085;-70
2022/12/24 06:58:47;;;;;;;24.50;12.93;;;;;;;5.25;100.00;100168.59;7402000;19;20086;-70
2022/12/24 07:01:19;;;;;;;28.08;15.23;;;;;;;5.27;100.00;100168.56;7401774;19;20018;-68
2022/12/24 07:03:48;;;;;;;24.17;13.48;;;;;;;5.24;100.00;100160.81;7399155;19;20073;-69
2022/12/24 07:06:20;;;;;;;25.83;13.65;;;;;;;5.28;100.00;100173.78;7399178;19;20490;-70
2022/12/24 07:08:49;;;;;;;21.13;10.82;;;;;;;5.27;100.00;100179.84;7401290;19;20011;-66
2022/12/24 07:11:17;;;;;;;17.50;8.23;;;;;;;5.27;100.00;100179.84;7401419;19;20078;-67
2022/12/24 07:13:46;;;;;;;16.10;6.97;;;;;;;5.27;100.00;100182.44;7401411;19;20081;-67
2022/12/24 07:16:14;;;;;;;17.35;7.53;;;;;;;5.27;100.00;100194.56;7399091;19;20540;-67
2022/12/24 07:18:46;;;;;;;14.10;6.93;;;;;;;5.25;100.00;100199.78;7401391;19;20090;-66
2022/12/24 07:21:14;;;;;;;16.15;7.97;;;;;;;5.24;100.00;100200.66;7401782;19;20090;-69
2022/12/24 07:23:42;;;;;;;17.58;7.65;;;;;;;5.25;100.00;100210.19;7401120;19;20018;-69
2022/12/24 07:26:12;;;;;;;16.65;8.18;;;;;;;5.26;100.00;100211.03;7399336;19;20070;-69
2022/12/24 07:28:41;;;;;;;19.60;8.07;;;;;;;5.26;100.00;100192.84;7400601;19;20422;-69
2022/12/24 07:31:09;;;;;;;18.60;8.10;;;;;;;5.29;100.00;100200.63;7400393;19;20418;-69
2022/12/24 07:33:38;;;;;;;22.00;8.57;;;;;;;5.30;100.00;100205.81;7400662;19;20079;-67
2022/12/24 07:36:12;;;;;;;21.98;9.70;;;;;;;5.33;100.00;100210.13;7397565;19;20424;-67
2022/12/24 07:38:40;;;;;;;20.45;9.88;;;;;;;5.36;100.00;100210.97;7400451;19;20094;-68
2022/12/24 07:41:08;;;;;;;24.75;10.07;;;;;;;5.39;100.00;100210.94;7400357;19;20039;-68
2022/12/24 07:43:37;;;;;;;26.70;10.73;;;;;;;5.44;100.00;100217.84;7400102;19;20031;-67
2022/12/24 07:46:06;;;;;;;26.33;10.00;;;;;;;5.49;100.00;100223.88;7399215;19;20031;-67
2022/12/24 07:48:35;;;;;;;25.50;12.05;;;;;;;5.51;100.00;100230.78;7397504;19;20422;-67
2022/12/24 07:51:04;;;;;;;26.35;10.80;;;;;;;5.56;100.00;100241.16;7397976;19;20089;-72
2022/12/24 07:53:35;;;;;;;32.28;11.77;;;;;;;5.60;100.00;100245.47;7400229;19;20026;-72
2022/12/24 07:56:03;;;;;;;28.85;11.48;;;;;;;5.64;100.00;100251.50;7397872;19;20026;-70
2022/12/24 07:58:32;;;;;;;28.63;11.95;;;;;;;5.68;100.00;100258.41;7397510;19;20435;-70
2022/12/24 08:01:01;;;;;;;28.98;11.77;;;;;;;5.71;100.00;100250.53;7399911;19;20082;-70
2022/12/24 08:03:30;;;;;;;30.02;11.40;;;;;;;5.74;100.00;100258.34;7399315;19;20015;-71
2022/12/24 08:06:05;;;;;;;33.13;12.15;;;;;;;5.74;100.00;100252.25;7396269;19;20015;-70
2022/12/24 08:08:37;;;;;;;33.72;12.18;;;;;;;5.83;100.00;100273.00;7399749;19;20147;-71
2022/12/24 08:11:08;;;;;;;29.15;13.00;;;;;;;5.87;100.00;100267.72;7399676;19;20364;-69
2022/12/24 08:13:37;;;;;;;33.80;12.10;;;;;;;5.92;100.00;100280.72;7399677;19;20022;-71
2022/12/24 08:16:06;;;;;;;28.67;11.93;;;;;;;5.97;100.00;100281.53;7397660;19;20091;-71
2022/12/24 08:18:35;;;;;;;22.88;10.75;;;;;;;6.01;100.00;100277.19;7398847;19;20809;-70
2022/12/24 08:21:03;;;;;;;29.38;11.20;;;;;;;6.05;100.00;100278.88;7398606;19;20087;-71
2022/12/24 08:23:32;;;;;;;30.48;12.27;;;;;;;6.09;100.00;100279.72;7398837;19;20015;-71
2022/12/24 08:26:03;;;;;;;31.08;12.13;;;;;;;6.14;100.00;100283.13;7397731;19;20082;-70
2022/12/24 08:28:31;;;;;;;29.38;13.70;;;;;;;6.17;100.00;100285.72;7397243;19;20092;-71
2022/12/24 08:31:00;;;;;;;31.92;15.20;;;;;;;6.22;100.00;100286.53;7398578;19;20070;-71
2022/12/24 08:33:29;;;;;;;34.45;15.55;;;;;;;6.28;100.00;100285.56;7398314;19;20506;-71
2022/12/24 08:35:58;;;;;;;35.30;14.60;;;;;;;6.32;100.00;100285.53;7397268;19;20086;-71
2022/12/24 08:38:26;;;;;;;34.15;15.40;;;;;;;6.35;100.00;100285.47;7398395;19;20035;-70
2022/12/24 08:40:56;;;;;;;34.95;14.52;;;;;;;6.42;100.00;100288.91;7398504;19;20082;-71
2022/12/24 08:43:27;;;;;;;34.75;15.40;;;;;;;6.48;100.00;100290.56;7398308;19;20022;-69
2022/12/24 08:45:55;;;;;;;42.67;15.68;;;;;;;6.52;100.00;100279.19;7397080;19;20377;-69
2022/12/24 08:48:24;;;;;;;40.45;16.67;;;;;;;6.56;100.00;100299.16;7397891;19;20070;-69
2022/12/24 08:50:52;;;;;;;38.67;16.48;;;;;;;6.60;100.00;100305.19;7397983;19;20015;-69
2022/12/24 08:53:20;;;;;;;37.95;15.88;;;;;;;6.63;100.00;100308.59;7397505;19;20094;-68
2022/12/24 08:55:49;;;;;;;39.53;17.70;;;;;;;6.64;100.00;100320.75;7395719;19;20041;-67
2022/12/24 08:58:17;;;;;;;34.10;15.82;;;;;;;6.68;100.00;100319.88;7397706;19;20025;-69
2022/12/24 09:00:48;;;;;;;43.15;16.83;;;;;;;6.68;100.00;100317.25;7397803;19;20086;-69
2022/12/24 09:03:17;;;;;;;34.83;15.13;;;;;;;6.70;100.00;100322.44;7395431;19;20509;-69
2022/12/24 09:05:46;;;;;;;42.72;18.17;;;;;;;6.73;100.00;100329.38;7395757;19;20017;-69
2022/12/24 09:08:15;;;;;;;46.47;20.35;;;;;;;6.73;100.00;100332.81;7395270;19;20022;-69
2022/12/24 09:10:43;;;;;;;45.20;19.05;;;;;;;6.76;100.00;100345.84;7396507;19;20427;-68
2022/12/24 09:13:12;;;;;;;43.20;19.92;;;;;;;6.77;100.00;100341.47;7397383;19;20421;-69
2022/12/24 09:15:40;;;;;;;45.05;17.90;;;;;;;6.79;100.00;100361.44;7396578;19;20085;-70
2022/12/24 09:18:12;;;;;;;36.03;16.38;;;;;;;6.79;100.00;100361.44;7395385;19;20091;-69
2022/12/24 09:20:40;;;;;;;36.97;15.93;;;;;;;6.81;100.00;100369.22;7397289;19;20429;-69
2022/12/24 09:23:08;;;;;;;35.72;14.77;;;;;;;6.83;100.00;100376.16;7395171;19;20070;-70
2022/12/24 09:25:37;;;;;;;37.35;16.58;;;;;;;6.84;100.00;100380.50;7396137;19;20086;-70
2022/12/24 09:28:06;;;;;;;38.92;17.27;;;;;;;6.86;100.00;100372.63;7394623;19;20102;-69
2022/12/24 09:30:34;;;;;;;44.00;17.30;;;;;;;6.86;100.00;100383.06;7396480;19;20090;-68
2022/12/24 09:33:09;;;;;;;36.25;16.23;;;;;;;6.88;100.00;100373.50;7396247;19;20440;-69
2022/12/24 09:35:42;;;;;;;38.20;16.65;;;;;;;6.90;100.00;100384.78;7396162;19;20512;-68
2022/12/24 09:38:10;;;;;;;39.72;16.15;;;;;;;6.92;100.00;100400.41;7395092;19;20090;-69
2022/12/24 09:40:41;;;;;;;46.95;17.00;;;;;;;6.92;100.00;100405.63;7394541;19;20018;-69
2022/12/24 09:43:17;;;;;;;32.50;12.77;;;;;;;6.95;100.00;100406.44;7396128;19;20498;-69
2022/12/24 09:45:51;;;;;;;34.22;13.70;;;;;;;6.98;100.00;100408.16;7395479;19;20543;-69
2022/12/24 09:48:22;;;;;;;;;;;;;;;7.01;100.00;100403.78;7396704;19;20014;-69
2022/12/24 09:50:58;;;;;;;39.10;12.68;;;;;;;7.04;100.00;100407.19;7395856;19;19925;-69
2022/12/24 09:53:31;;;;;;;35.53;12.15;;;;;;;7.07;100.00;100413.25;7394226;19;20046;-68
2022/12/24 09:56:03;;;;;;;29.98;12.45;;;;;;;7.11;100.00;100429.72;7395161;19;20026;-69
2022/12/24 09:58:36;;;;;;;29.63;10.73;;;;;;;7.14;100.00;100437.50;7394353;19;20094;-68
2022/12/24 10:01:04;;;;;;;33.88;11.60;;;;;;;7.16;100.00;100439.22;7395295;19;20074;-68
2022/12/24 10:03:34;;;;;;;24.95;11.05;;;;;;;7.21;100.00;100441.78;7395743;19;20078;-68
2022/12/24 10:06:10;;;;;;;32.13;10.57;;;;;;;7.22;100.00;100440.03;7393522;19;20414;-68
2022/12/24 10:08:53;;;;;;;26.35;11.18;;;;;;;7.27;100.00;100451.28;7393584;19;20018;-69
2022/12/24 10:11:29;;;;;;;27.05;10.25;;;;;;;7.29;100.00;100449.50;7395081;19;20422;-69
2022/12/24 10:14:21;;;;;;;41.83;13.45;;;;;;;7.30;100.00;100451.22;7395376;19;20082;-70
2022/12/24 10:16:59;;;;;;;28.13;8.65;;;;;;;7.32;100.00;100465.13;7393964;19;20082;-69
2022/12/24 10:19:41;;;;;;;25.80;9.68;;;;;;;7.32;100.00;100463.38;7394728;19;20544;-67
2022/12/24 10:22:24;;;;;;;28.42;9.35;;;;;;;7.34;100.00;100468.56;7393078;19;20077;-68
2022/12/24 10:25:01;;;;;;;26.73;8.80;;;;;;;7.34;100.00;100471.19;7394772;19;20022;-69
2022/12/24 10:27:36;;;;;;;21.15;7.75;;;;;;;7.34;100.00;100468.56;7393066;19;20074;-69
2022/12/24 10:30:15;;;;;;;23.40;8.93;;;;;;;7.38;100.00;100472.00;7394823;19;20086;-69
2022/12/24 10:32:44;;;;;;;23.75;7.78;;;;;;;7.40;100.00;100471.09;7394666;19;20477;-69
2022/12/24 10:35:22;;;;;;;20.00;7.40;;;;;;;7.42;100.00;100471.97;7394416;19;20074;-69
2022/12/24 10:37:55;;;;;;;20.30;9.43;;;;;;;7.46;100.00;100486.69;7392428;19;20522;-69
2022/12/24 10:40:31;;;;;;;26.10;9.70;;;;;;;7.50;100.00;100482.28;7394117;19;20015;-68
2022/12/24 10:42:59;;;;;;;22.45;8.20;;;;;;;7.56;100.00;100487.44;7392822;19;20074;-69
2022/12/24 10:45:38;;;;;;;26.50;9.00;;;;;;;7.59;100.00;100494.38;7393833;19;20074;-69
2022/12/24 10:48:11;;;;;;;25.63;8.48;;;;;;;7.61;100.00;100496.06;7394517;19;20107;-68
2022/12/24 10:50:44;;;;;;;22.40;8.80;;;;;;;7.64;100.00;100490.78;7394673;19;20039;-68
2022/12/24 10:53:23;;;;;;;20.60;7.97;;;;;;;7.67;100.00;100492.50;7391949;19;20074;-68
2022/12/24 10:55:52;;;;;;;22.95;9.18;;;;;;;7.70;100.00;100497.69;7395049;19;20015;-69
2022/12/24 10:58:21;;;;;;;23.40;7.88;;;;;;;7.71;100.00;100495.94;7391886;19;20515;-70
2022/12/24 11:00:55;;;;;;;28.60;7.65;;;;;;;7.70;100.00;100508.13;7392074;19;20094;-69
2022/12/24 11:03:26;;;;;;;23.42;7.72;;;;;;;7.69;100.00;100514.25;7393666;19;20066;-69
2022/12/24 11:06:03;;;;;;;29.20;9.07;;;;;;;7.65;100.00;100513.41;7392792;19;20011;-69
2022/12/24 11:08:35;;;;;;;19.65;7.25;;;;;;;7.66;100.00;100509.91;7394105;19;20032;-69
2022/12/24 11:11:06;;;;;;;22.65;7.80;;;;;;;7.66;100.00;100515.16;7394307;19;20014;-70
2022/12/24 11:13:37;;;;;;;25.02;7.90;;;;;;;7.68;100.00;100514.25;7393652;19;20018;-70
2022/12/24 11:16:09;;;;;;;25.85;9.50;;;;;;;7.68;100.00;100516.88;7392545;19;20096;-70
2022/12/24 11:18:40;;;;;;;25.95;7.18;;;;;;;7.68;100.00;100524.72;7394159;19;20022;-69
2022/12/24 11:21:09;;;;;;;19.75;7.32;;;;;;;7.69;100.00;100531.66;7393874;19;20074;-69
2022/12/24 11:23:40;;;;;;;24.00;8.13;;;;;;;7.68;100.00;100530.78;7393431;19;20082;-70
2022/12/24 11:26:09;;;;;;;16.05;7.00;;;;;;;7.72;100.00;100531.59;7393295;19;20023;-70
2022/12/24 11:28:37;;;;;;;23.85;7.45;;;;;;;7.73;100.00;100531.59;7393490;19;20031;-70
2022/12/24 11:31:08;;;;;;;32.03;7.80;;;;;;;7.74;100.00;100517.66;7391050;19;20018;-70
2022/12/24 11:33:49;;;;;;;25.60;7.20;;;;;;;7.77;100.00;100529.81;7394176;19;20023;-70
2022/12/24 11:36:22;;;;;;;15.98;6.55;;;;;;;7.77;100.00;100528.06;7398348;19;20021;-70
2022/12/24 11:38:59;;;;;;;25.95;6.93;;;;;;;7.80;100.00;100537.59;7399967;19;20090;-70
2022/12/24 11:41:28;;;;;;;24.08;6.72;;;;;;;7.82;100.00;100539.31;7400845;19;20485;-71
2022/12/24 11:44:02;;;;;;;19.42;6.75;;;;;;;7.81;100.00;100536.72;7398711;19;20026;-69
2022/12/24 11:46:39;;;;;;;24.20;8.68;;;;;;;7.87;100.00;100541.84;7397494;19;20052;-69